Devon, Kentucky
Current Conditions -  °F | °C
As of 11:52 AM on Friday 31 Oct 2014 (Local Time) from KCVG Reporting Station
Light Rain Light Rain  
Wind Chill: 43°   Ceiling: 3300
Heat Index: 47°   Visibility: 8mi
Dew Point: 40°   Wind: 8mph
Humidity: 77%   Direction: 260°W
Pressure: 29.95"   Gusts: NA
Location:  38.997°N, 84.6517°W
Report Text: KCVG 311552Z 26007KT 8SM -RA BKN033 OVC042 08/04 A2995 RMK AO2 RAB06 SLP142 P0000 T00830044
Loading
Personal Weather Stations






























Interactive Weather Map
Tropical Storm Tracking
New forecast layout! Learn more

10-Day Weather Forecast

Advertisements
Track Severe Weather on mobile